sensor_id;sensor_type;location;lat;lon;timestamp;P1;durP1;ratioP1;P2;durP2;ratioP2
20397;SDS011;10358;49.590;11.030;2023-05-21T00:02:02;16.27;;;9.15;;
20397;SDS011;10358;49.590;11.030;2023-05-21T00:04:28;14.68;;;9.00;;
20397;SDS011;10358;49.590;11.030;2023-05-21T00:06:56;17.27;;;9.25;;
20397;SDS011;10358;49.590;11.030;2023-05-21T00:09:22;14.52;;;8.98;;
20397;SDS011;10358;49.590;11.030;2023-05-21T00:11:48;11.73;;;8.90;;
20397;SDS011;10358;49.590;11.030;2023-05-21T00:14:14;12.43;;;8.63;;
20397;SDS011;10358;49.590;11.030;2023-05-21T00:16:40;15.82;;;8.85;;
20397;SDS011;10358;49.590;11.030;2023-05-21T00:19:05;14.30;;;8.68;;
20397;SDS011;10358;49.590;11.030;2023-05-21T00:21:32;14.45;;;8.77;;
20397;SDS011;10358;49.590;11.030;2023-05-21T00:23:57;11.85;;;8.50;;
20397;SDS011;10358;49.590;11.030;2023-05-21T00:26:23;12.88;;;8.65;;
20397;SDS011;10358;49.590;11.030;2023-05-21T00:28:49;12.20;;;8.20;;
20397;SDS011;10358;49.590;11.030;2023-05-21T00:31:14;10.65;;;8.18;;
20397;SDS011;10358;49.590;11.030;2023-05-21T00:33:41;15.18;;;8.68;;
20397;SDS011;10358;49.590;11.030;2023-05-21T00:36:07;13.10;;;8.75;;
20397;SDS011;10358;49.590;11.030;2023-05-21T00:38:32;12.43;;;8.52;;
20397;SDS011;10358;49.590;11.030;2023-05-21T00:41:00;12.93;;;9.25;;
20397;SDS011;10358;49.590;11.030;2023-05-21T00:43:26;12.40;;;9.18;;
20397;SDS011;10358;49.590;11.030;2023-05-21T00:45:51;13.75;;;8.73;;
20397;SDS011;10358;49.590;11.030;2023-05-21T00:48:18;12.90;;;9.05;;
20397;SDS011;10358;49.590;11.030;2023-05-21T00:50:44;11.95;;;8.85;;
20397;SDS011;10358;49.590;11.030;2023-05-21T00:53:10;11.50;;;8.50;;
20397;SDS011;10358;49.590;11.030;2023-05-21T00:55:39;13.27;;;8.63;;
20397;SDS011;10358;49.590;11.030;2023-05-21T00:58:05;13.18;;;8.73;;
20397;SDS011;10358;49.590;11.030;2023-05-21T01:00:34;13.02;;;8.98;;
20397;SDS011;10358;49.590;11.030;2023-05-21T01:03:01;16.38;;;9.30;;
20397;SDS011;10358;49.590;11.030;2023-05-21T01:05:27;14.88;;;9.30;;
20397;SDS011;10358;49.590;11.030;2023-05-21T01:07:53;12.32;;;9.15;;
20397;SDS011;10358;49.590;11.030;2023-05-21T01:10:19;15.35;;;9.30;;
20397;SDS011;10358;49.590;11.030;2023-05-21T01:12:45;13.70;;;9.18;;
20397;SDS011;10358;49.590;11.030;2023-05-21T01:15:12;12.93;;;8.98;;
20397;SDS011;10358;49.590;11.030;2023-05-21T01:17:38;12.52;;;8.80;;
20397;SDS011;10358;49.590;11.030;2023-05-21T01:20:05;11.70;;;9.00;;
20397;SDS011;10358;49.590;11.030;2023-05-21T01:22:35;12.35;;;9.05;;
20397;SDS011;10358;49.590;11.030;2023-05-21T01:25:06;11.65;;;8.82;;
20397;SDS011;10358;49.590;11.030;2023-05-21T01:27:31;13.68;;;9.30;;
20397;SDS011;10358;49.590;11.030;2023-05-21T01:29:57;12.77;;;9.68;;
20397;SDS011;10358;49.590;11.030;2023-05-21T01:32:37;15.43;;;10.07;;
20397;SDS011;10358;49.590;11.030;2023-05-21T01:35:10;17.55;;;10.15;;
20397;SDS011;10358;49.590;11.030;2023-05-21T01:40:52;12.07;;;9.38;;
20397;SDS011;10358;49.590;11.030;2023-05-21T01:43:02;13.60;;;9.52;;
20397;SDS011;10358;49.590;11.030;2023-05-21T01:45:31;16.27;;;9.85;;
20397;SDS011;10358;49.590;11.030;2023-05-21T01:47:59;14.30;;;9.45;;
20397;SDS011;10358;49.590;11.030;2023-05-21T01:50:25;11.65;;;9.40;;
20397;SDS011;10358;49.590;11.030;2023-05-21T01:52:52;13.18;;;9.57;;
20397;SDS011;10358;49.590;11.030;2023-05-21T01:55:19;12.32;;;9.70;;
20397;SDS011;10358;49.590;11.030;2023-05-21T01:57:49;15.20;;;9.07;;
20397;SDS011;10358;49.590;11.030;2023-05-21T02:00:23;13.15;;;9.48;;
20397;SDS011;10358;49.590;11.030;2023-05-21T02:02:50;16.35;;;9.65;;
20397;SDS011;10358;49.590;11.030;2023-05-21T02:05:16;16.17;;;9.68;;
20397;SDS011;10358;49.590;11.030;2023-05-21T02:07:43;20.40;;;10.00;;
20397;SDS011;10358;49.590;11.030;2023-05-21T02:10:09;15.65;;;9.40;;
20397;SDS011;10358;49.590;11.030;2023-05-21T02:12:35;16.05;;;9.98;;
20397;SDS011;10358;49.590;11.030;2023-05-21T02:15:01;15.10;;;10.07;;
20397;SDS011;10358;49.590;11.030;2023-05-21T02:17:27;14.48;;;9.93;;
20397;SDS011;10358;49.590;11.030;2023-05-21T02:20:00;13.30;;;9.95;;
20397;SDS011;10358;49.590;11.030;2023-05-21T02:22:36;16.25;;;10.30;;
20397;SDS011;10358;49.590;11.030;2023-05-21T02:25:03;16.73;;;9.57;;
20397;SDS011;10358;49.590;11.030;2023-05-21T02:27:29;13.52;;;9.85;;
20397;SDS011;10358;49.590;11.030;2023-05-21T02:29:56;16.30;;;10.68;;
20397;SDS011;10358;49.590;11.030;2023-05-21T02:32:21;17.55;;;10.88;;
20397;SDS011;10358;49.590;11.030;2023-05-21T02:34:47;13.60;;;10.18;;
20397;SDS011;10358;49.590;11.030;2023-05-21T02:37:14;16.75;;;10.35;;
20397;SDS011;10358;49.590;11.030;2023-05-21T02:39:39;14.60;;;10.10;;
20397;SDS011;10358;49.590;11.030;2023-05-21T02:42:05;13.82;;;10.18;;
20397;SDS011;10358;49.590;11.030;2023-05-21T02:44:30;13.27;;;9.65;;
20397;SDS011;10358;49.590;11.030;2023-05-21T02:46:56;14.98;;;10.52;;
20397;SDS011;10358;49.590;11.030;2023-05-21T02:49:21;15.68;;;10.45;;
20397;SDS011;10358;49.590;11.030;2023-05-21T02:51:47;13.40;;;10.55;;
20397;SDS011;10358;49.590;11.030;2023-05-21T02:54:13;12.68;;;10.20;;
20397;SDS011;10358;49.590;11.030;2023-05-21T02:56:39;15.60;;;11.38;;
20397;SDS011;10358;49.590;11.030;2023-05-21T02:59:04;17.27;;;11.10;;
20397;SDS011;10358;49.590;11.030;2023-05-21T03:01:30;13.35;;;10.20;;
20397;SDS011;10358;49.590;11.030;2023-05-21T03:03:56;14.38;;;10.57;;
20397;SDS011;10358;49.590;11.030;2023-05-21T03:06:22;17.00;;;11.00;;
20397;SDS011;10358;49.590;11.030;2023-05-21T03:08:47;17.48;;;10.57;;
20397;SDS011;10358;49.590;11.030;2023-05-21T03:11:13;20.15;;;11.65;;
20397;SDS011;10358;49.590;11.030;2023-05-21T03:13:38;14.98;;;10.90;;
20397;SDS011;10358;49.590;11.030;2023-05-21T03:16:04;14.55;;;11.02;;
20397;SDS011;10358;49.590;11.030;2023-05-21T03:18:30;14.77;;;11.32;;
20397;SDS011;10358;49.590;11.030;2023-05-21T03:20:55;14.27;;;10.88;;
20397;SDS011;10358;49.590;11.030;2023-05-21T03:23:22;17.92;;;11.50;;
20397;SDS011;10358;49.590;11.030;2023-05-21T03:25:48;14.75;;;11.00;;
20397;SDS011;10358;49.590;11.030;2023-05-21T03:28:15;19.25;;;11.73;;
20397;SDS011;10358;49.590;11.030;2023-05-21T03:30:41;16.45;;;11.10;;
20397;SDS011;10358;49.590;11.030;2023-05-21T03:33:10;15.15;;;11.20;;
20397;SDS011;10358;49.590;11.030;2023-05-21T03:35:39;17.30;;;11.88;;
20397;SDS011;10358;49.590;11.030;2023-05-21T03:38:05;16.83;;;10.65;;
20397;SDS011;10358;49.590;11.030;2023-05-21T03:40:30;16.83;;;11.32;;
20397;SDS011;10358;49.590;11.030;2023-05-21T03:42:56;17.90;;;11.27;;
20397;SDS011;10358;49.590;11.030;2023-05-21T03:45:21;16.35;;;11.48;;
20397;SDS011;10358;49.590;11.030;2023-05-21T03:47:47;17.25;;;11.23;;
20397;SDS011;10358;49.590;11.030;2023-05-21T03:50:13;14.48;;;11.10;;
20397;SDS011;10358;49.590;11.030;2023-05-21T03:52:39;18.02;;;11.27;;
20397;SDS011;10358;49.590;11.030;2023-05-21T03:55:04;16.65;;;11.05;;
20397;SDS011;10358;49.590;11.030;2023-05-21T03:57:30;16.02;;;11.73;;
20397;SDS011;10358;49.590;11.030;2023-05-21T03:59:56;18.30;;;11.30;;
20397;SDS011;10358;49.590;11.030;2023-05-21T04:02:24;16.67;;;11.05;;
20397;SDS011;10358;49.590;11.030;2023-05-21T04:04:50;16.98;;;11.02;;
20397;SDS011;10358;49.590;11.030;2023-05-21T04:07:17;17.75;;;11.50;;
20397;SDS011;10358;49.590;11.030;2023-05-21T04:09:43;17.58;;;11.10;;
20397;SDS011;10358;49.590;11.030;2023-05-21T04:12:09;19.48;;;11.77;;
20397;SDS011;10358;49.590;11.030;2023-05-21T04:14:35;15.13;;;11.10;;
20397;SDS011;10358;49.590;11.030;2023-05-21T04:17:01;15.25;;;11.60;;
20397;SDS011;10358;49.590;11.030;2023-05-21T04:19:29;20.20;;;11.52;;
20397;SDS011;10358;49.590;11.030;2023-05-21T04:21:55;16.08;;;11.70;;
20397;SDS011;10358;49.590;11.030;2023-05-21T04:24:22;16.75;;;11.15;;
20397;SDS011;10358;49.590;11.030;2023-05-21T04:26:48;16.00;;;12.20;;
20397;SDS011;10358;49.590;11.030;2023-05-21T04:29:13;16.30;;;11.65;;
20397;SDS011;10358;49.590;11.030;2023-05-21T04:31:41;16.00;;;11.90;;
20397;SDS011;10358;49.590;11.030;2023-05-21T04:34:07;16.98;;;11.60;;
20397;SDS011;10358;49.590;11.030;2023-05-21T04:36:33;15.85;;;11.07;;
20397;SDS011;10358;49.590;11.030;2023-05-21T04:38:59;18.10;;;11.77;;
20397;SDS011;10358;49.590;11.030;2023-05-21T04:41:25;16.17;;;11.57;;
20397;SDS011;10358;49.590;11.030;2023-05-21T04:43:50;18.23;;;11.65;;
20397;SDS011;10358;49.590;11.030;2023-05-21T04:46:19;14.63;;;11.07;;
20397;SDS011;10358;49.590;11.030;2023-05-21T04:48:49;17.15;;;11.15;;
20397;SDS011;10358;49.590;11.030;2023-05-21T04:51:20;16.42;;;11.13;;
20397;SDS011;10358;49.590;11.030;2023-05-21T04:53:48;17.00;;;11.40;;
20397;SDS011;10358;49.590;11.030;2023-05-21T04:56:15;14.70;;;11.25;;
20397;SDS011;10358;49.590;11.030;2023-05-21T04:58:44;14.60;;;10.82;;
20397;SDS011;10358;49.590;11.030;2023-05-21T05:01:11;14.77;;;11.20;;
20397;SDS011;10358;49.590;11.030;2023-05-21T05:03:37;13.75;;;11.02;;
20397;SDS011;10358;49.590;11.030;2023-05-21T05:06:03;14.00;;;10.82;;
20397;SDS011;10358;49.590;11.030;2023-05-21T05:08:29;15.35;;;11.25;;
20397;SDS011;10358;49.590;11.030;2023-05-21T05:10:55;14.48;;;11.13;;
20397;SDS011;10358;49.590;11.030;2023-05-21T05:13:21;15.43;;;10.65;;
20397;SDS011;10358;49.590;11.030;2023-05-21T05:15:46;14.93;;;10.75;;
20397;SDS011;10358;49.590;11.030;2023-05-21T05:18:12;17.30;;;11.23;;
20397;SDS011;10358;49.590;11.030;2023-05-21T05:20:37;14.98;;;10.90;;
20397;SDS011;10358;49.590;11.030;2023-05-21T05:23:03;14.80;;;10.52;;
20397;SDS011;10358;49.590;11.030;2023-05-21T05:25:29;14.13;;;11.15;;
20397;SDS011;10358;49.590;11.030;2023-05-21T05:27:54;13.00;;;10.65;;
20397;SDS011;10358;49.590;11.030;2023-05-21T05:30:20;15.13;;;10.50;;
20397;SDS011;10358;49.590;11.030;2023-05-21T05:32:45;18.23;;;10.93;;
20397;SDS011;10358;49.590;11.030;2023-05-21T05:35:11;13.95;;;10.40;;
20397;SDS011;10358;49.590;11.030;2023-05-21T05:37:37;16.95;;;10.02;;
20397;SDS011;10358;49.590;11.030;2023-05-21T05:40:02;16.27;;;10.90;;
20397;SDS011;10358;49.590;11.030;2023-05-21T05:42:29;12.25;;;9.68;;
20397;SDS011;10358;49.590;11.030;2023-05-21T05:44:55;15.52;;;9.93;;
20397;SDS011;10358;49.590;11.030;2023-05-21T05:47:20;13.40;;;10.07;;
20397;SDS011;10358;49.590;11.030;2023-05-21T05:49:46;14.20;;;10.55;;
20397;SDS011;10358;49.590;11.030;2023-05-21T05:52:12;14.38;;;10.73;;
20397;SDS011;10358;49.590;11.030;2023-05-21T05:54:37;13.32;;;10.85;;
20397;SDS011;10358;49.590;11.030;2023-05-21T05:57:03;14.98;;;10.35;;
20397;SDS011;10358;49.590;11.030;2023-05-21T05:59:28;12.07;;;9.68;;
20397;SDS011;10358;49.590;11.030;2023-05-21T06:01:54;20.60;;;10.88;;
20397;SDS011;10358;49.590;11.030;2023-05-21T06:04:20;12.93;;;9.60;;
20397;SDS011;10358;49.590;11.030;2023-05-21T06:06:45;13.55;;;9.75;;
20397;SDS011;10358;49.590;11.030;2023-05-21T06:09:12;13.60;;;10.00;;
20397;SDS011;10358;49.590;11.030;2023-05-21T06:11:37;12.30;;;9.30;;
20397;SDS011;10358;49.590;11.030;2023-05-21T06:14:03;11.88;;;9.55;;
20397;SDS011;10358;49.590;11.030;2023-05-21T06:16:29;12.82;;;9.82;;
20397;SDS011;10358;49.590;11.030;2023-05-21T06:18:57;15.93;;;10.57;;
20397;SDS011;10358;49.590;11.030;2023-05-21T06:21:23;14.27;;;9.73;;
20397;SDS011;10358;49.590;11.030;2023-05-21T06:23:50;16.70;;;9.82;;
20397;SDS011;10358;49.590;11.030;2023-05-21T06:26:15;17.35;;;9.90;;
20397;SDS011;10358;49.590;11.030;2023-05-21T06:28:43;12.07;;;9.10;;
20397;SDS011;10358;49.590;11.030;2023-05-21T06:31:08;11.82;;;8.70;;
20397;SDS011;10358;49.590;11.030;2023-05-21T06:33:35;12.65;;;9.07;;
20397;SDS011;10358;49.590;11.030;2023-05-21T06:36:01;14.50;;;10.05;;
20397;SDS011;10358;49.590;11.030;2023-05-21T06:38:26;13.77;;;9.60;;
20397;SDS011;10358;49.590;11.030;2023-05-21T06:43:27;16.88;;;9.77;;
20397;SDS011;10358;49.590;11.030;2023-05-21T06:45:53;12.38;;;9.48;;
20397;SDS011;10358;49.590;11.030;2023-05-21T06:48:18;15.77;;;9.75;;
20397;SDS011;10358;49.590;11.030;2023-05-21T06:50:44;12.82;;;9.20;;
20397;SDS011;10358;49.590;11.030;2023-05-21T06:53:09;14.10;;;8.95;;
20397;SDS011;10358;49.590;11.030;2023-05-21T06:55:35;13.40;;;9.82;;
20397;SDS011;10358;49.590;11.030;2023-05-21T06:58:01;14.90;;;8.90;;
20397;SDS011;10358;49.590;11.030;2023-05-21T07:00:26;14.25;;;9.32;;
20397;SDS011;10358;49.590;11.030;2023-05-21T07:02:52;12.73;;;8.90;;
20397;SDS011;10358;49.590;11.030;2023-05-21T07:05:18;11.63;;;9.02;;
20397;SDS011;10358;49.590;11.030;2023-05-21T07:07:44;16.98;;;9.77;;
20397;SDS011;10358;49.590;11.030;2023-05-21T07:10:10;12.82;;;8.85;;
20397;SDS011;10358;49.590;11.030;2023-05-21T07:12:35;14.32;;;9.35;;
20397;SDS011;10358;49.590;11.030;2023-05-21T07:15:01;12.50;;;8.73;;
20397;SDS011;10358;49.590;11.030;2023-05-21T07:17:26;11.48;;;8.75;;
20397;SDS011;10358;49.590;11.030;2023-05-21T07:19:52;12.95;;;9.43;;
20397;SDS011;10358;49.590;11.030;2023-05-21T07:22:17;15.05;;;9.15;;
20397;SDS011;10358;49.590;11.030;2023-05-21T07:24:43;11.55;;;9.18;;
20397;SDS011;10358;49.590;11.030;2023-05-21T07:27:08;13.20;;;9.07;;
20397;SDS011;10358;49.590;11.030;2023-05-21T07:29:34;12.55;;;8.63;;
20397;SDS011;10358;49.590;11.030;2023-05-21T07:32:00;12.32;;;8.50;;
20397;SDS011;10358;49.590;11.030;2023-05-21T07:34:26;12.07;;;9.07;;
20397;SDS011;10358;49.590;11.030;2023-05-21T07:36:52;12.38;;;8.85;;
20397;SDS011;10358;49.590;11.030;2023-05-21T07:39:17;12.07;;;8.77;;
20397;SDS011;10358;49.590;11.030;2023-05-21T07:41:43;13.68;;;8.95;;
20397;SDS011;10358;49.590;11.030;2023-05-21T07:44:08;12.32;;;8.55;;
20397;SDS011;10358;49.590;11.030;2023-05-21T07:46:35;14.52;;;9.02;;
20397;SDS011;10358;49.590;11.030;2023-05-21T07:49:00;11.63;;;8.88;;
20397;SDS011;10358;49.590;11.030;2023-05-21T07:51:26;14.20;;;9.23;;
20397;SDS011;10358;49.590;11.030;2023-05-21T07:53:51;11.63;;;9.02;;
20397;SDS011;10358;49.590;11.030;2023-05-21T07:56:17;12.45;;;8.75;;
20397;SDS011;10358;49.590;11.030;2023-05-21T07:58:43;13.07;;;8.70;;
20397;SDS011;10358;49.590;11.030;2023-05-21T08:01:09;14.05;;;8.85;;
20397;SDS011;10358;49.590;11.030;2023-05-21T08:03:35;12.60;;;9.50;;
20397;SDS011;10358;49.590;11.030;2023-05-21T08:06:01;14.88;;;8.77;;
20397;SDS011;10358;49.590;11.030;2023-05-21T08:08:27;11.82;;;8.82;;
20397;SDS011;10358;49.590;11.030;2023-05-21T08:10:53;10.52;;;8.68;;
20397;SDS011;10358;49.590;11.030;2023-05-21T08:13:18;13.45;;;8.93;;
20397;SDS011;10358;49.590;11.030;2023-05-21T08:15:44;15.93;;;9.52;;
20397;SDS011;10358;49.590;11.030;2023-05-21T08:18:09;11.38;;;8.50;;
20397;SDS011;10358;49.590;11.030;2023-05-21T08:20:35;12.20;;;8.93;;
20397;SDS011;10358;49.590;11.030;2023-05-21T08:23:01;11.40;;;8.40;;
20397;SDS011;10358;49.590;11.030;2023-05-21T08:25:27;12.00;;;9.27;;
20397;SDS011;10358;49.590;11.030;2023-05-21T08:27:53;12.40;;;9.25;;
20397;SDS011;10358;49.590;11.030;2023-05-21T08:30:19;10.85;;;8.90;;
20397;SDS011;10358;49.590;11.030;2023-05-21T08:32:46;11.23;;;8.80;;
20397;SDS011;10358;49.590;11.030;2023-05-21T08:35:12;14.35;;;9.15;;
20397;SDS011;10358;49.590;11.030;2023-05-21T08:37:37;11.20;;;8.52;;
20397;SDS011;10358;49.590;11.030;2023-05-21T08:40:03;12.10;;;9.50;;
20397;SDS011;10358;49.590;11.030;2023-05-21T08:42:48;14.98;;;9.18;;
20397;SDS011;10358;49.590;11.030;2023-05-21T08:45:17;14.00;;;8.98;;
20397;SDS011;10358;49.590;11.030;2023-05-21T08:47:44;15.85;;;9.00;;
20397;SDS011;10358;49.590;11.030;2023-05-21T08:50:11;15.65;;;8.85;;
20397;SDS011;10358;49.590;11.030;2023-05-21T08:52:38;16.45;;;11.25;;
20397;SDS011;10358;49.590;11.030;2023-05-21T08:55:05;14.23;;;9.90;;
20397;SDS011;10358;49.590;11.030;2023-05-21T08:57:32;15.95;;;9.27;;
20397;SDS011;10358;49.590;11.030;2023-05-21T08:59:58;12.18;;;9.20;;
20397;SDS011;10358;49.590;11.030;2023-05-21T09:02:25;13.35;;;8.80;;
20397;SDS011;10358;49.590;11.030;2023-05-21T09:04:54;12.52;;;8.40;;
20397;SDS011;10358;49.590;11.030;2023-05-21T09:07:26;11.52;;;8.68;;
20397;SDS011;10358;49.590;11.030;2023-05-21T09:09:56;13.90;;;8.77;;
20397;SDS011;10358;49.590;11.030;2023-05-21T09:12:26;15.38;;;8.48;;
20397;SDS011;10358;49.590;11.030;2023-05-21T09:14:52;11.07;;;8.80;;
20397;SDS011;10358;49.590;11.030;2023-05-21T09:17:20;11.60;;;8.85;;
20397;SDS011;10358;49.590;11.030;2023-05-21T09:20:03;12.95;;;8.23;;
20397;SDS011;10358;49.590;11.030;2023-05-21T09:22:38;10.90;;;8.75;;
20397;SDS011;10358;49.590;11.030;2023-05-21T09:25:06;10.82;;;8.77;;
20397;SDS011;10358;49.590;11.030;2023-05-21T09:27:33;12.27;;;8.80;;
20397;SDS011;10358;49.590;11.030;2023-05-21T09:29:59;13.82;;;8.77;;
20397;SDS011;10358;49.590;11.030;2023-05-21T09:32:25;12.15;;;8.77;;
20397;SDS011;10358;49.590;11.030;2023-05-21T09:34:51;11.30;;;8.27;;
20397;SDS011;10358;49.590;11.030;2023-05-21T09:37:16;14.55;;;8.48;;
20397;SDS011;10358;49.590;11.030;2023-05-21T09:39:42;15.68;;;8.90;;
20397;SDS011;10358;49.590;11.030;2023-05-21T09:42:10;12.57;;;9.18;;
20397;SDS011;10358;49.590;11.030;2023-05-21T09:44:36;11.10;;;8.02;;
20397;SDS011;10358;49.590;11.030;2023-05-21T09:47:04;12.60;;;8.55;;
20397;SDS011;10358;49.590;11.030;2023-05-21T09:49:29;9.98;;;8.68;;
20397;SDS011;10358;49.590;11.030;2023-05-21T09:51:55;11.15;;;8.75;;
20397;SDS011;10358;49.590;11.030;2023-05-21T09:54:22;10.68;;;8.88;;
20397;SDS011;10358;49.590;11.030;2023-05-21T09:56:48;13.65;;;8.77;;
20397;SDS011;10358;49.590;11.030;2023-05-21T09:59:15;13.55;;;8.98;;
20397;SDS011;10358;49.590;11.030;2023-05-21T10:01:41;12.45;;;8.88;;
20397;SDS011;10358;49.590;11.030;2023-05-21T10:04:08;11.05;;;8.93;;
20397;SDS011;10358;49.590;11.030;2023-05-21T10:06:36;10.88;;;8.90;;
20397;SDS011;10358;49.590;11.030;2023-05-21T10:09:06;13.70;;;8.93;;
20397;SDS011;10358;49.590;11.030;2023-05-21T10:11:35;11.95;;;8.68;;
20397;SDS011;10358;49.590;11.030;2023-05-21T10:14:08;11.45;;;8.65;;
20397;SDS011;10358;49.590;11.030;2023-05-21T10:16:40;15.35;;;8.90;;
20397;SDS011;10358;49.590;11.030;2023-05-21T10:19:06;15.00;;;9.30;;
20397;SDS011;10358;49.590;11.030;2023-05-21T10:21:35;12.50;;;9.80;;
20397;SDS011;10358;49.590;11.030;2023-05-21T10:24:01;12.20;;;9.52;;
20397;SDS011;10358;49.590;11.030;2023-05-21T10:26:28;13.27;;;8.65;;
20397;SDS011;10358;49.590;11.030;2023-05-21T10:28:55;13.65;;;9.00;;
20397;SDS011;10358;49.590;11.030;2023-05-21T10:31:24;11.63;;;9.07;;
20397;SDS011;10358;49.590;11.030;2023-05-21T10:33:52;10.45;;;8.23;;
20397;SDS011;10358;49.590;11.030;2023-05-21T10:36:19;13.13;;;8.52;;
20397;SDS011;10358;49.590;11.030;2023-05-21T10:38:46;14.35;;;8.88;;
20397;SDS011;10358;49.590;11.030;2023-05-21T10:41:12;10.45;;;8.60;;
20397;SDS011;10358;49.590;11.030;2023-05-21T10:46:33;10.23;;;8.25;;
20397;SDS011;10358;49.590;11.030;2023-05-21T10:57:58;12.05;;;8.05;;
20397;SDS011;10358;49.590;11.030;2023-05-21T11:00:45;11.88;;;8.18;;
20397;SDS011;10358;49.590;11.030;2023-05-21T11:03:11;9.88;;;8.50;;
20397;SDS011;10358;49.590;11.030;2023-05-21T11:05:54;9.68;;;8.38;;
20397;SDS011;10358;49.590;11.030;2023-05-21T11:08:21;13.35;;;7.55;;
20397;SDS011;10358;49.590;11.030;2023-05-21T11:10:51;13.82;;;8.30;;
20397;SDS011;10358;49.590;11.030;2023-05-21T11:13:18;10.07;;;7.50;;
20397;SDS011;10358;49.590;11.030;2023-05-21T11:26:15;10.73;;;7.18;;
20397;SDS011;10358;49.590;11.030;2023-05-21T11:28:45;7.70;;;6.90;;
20397;SDS011;10358;49.590;11.030;2023-05-21T11:31:23;10.35;;;6.97;;
20397;SDS011;10358;49.590;11.030;2023-05-21T11:34:10;9.88;;;6.85;;
20397;SDS011;10358;49.590;11.030;2023-05-21T11:36:37;8.60;;;6.80;;
20397;SDS011;10358;49.590;11.030;2023-05-21T11:39:08;14.13;;;6.90;;
20397;SDS011;10358;49.590;11.030;2023-05-21T11:41:55;14.25;;;6.90;;
20397;SDS011;10358;49.590;11.030;2023-05-21T11:44:38;15.32;;;7.18;;
20397;SDS011;10358;49.590;11.030;2023-05-21T11:47:04;9.40;;;6.40;;
20397;SDS011;10358;49.590;11.030;2023-05-21T11:49:32;8.20;;;6.32;;
20397;SDS011;10358;49.590;11.030;2023-05-21T11:51:58;9.35;;;6.25;;
20397;SDS011;10358;49.590;11.030;2023-05-21T11:54:24;7.88;;;6.43;;
20397;SDS011;10358;49.590;11.030;2023-05-21T11:56:50;10.50;;;6.00;;
20397;SDS011;10358;49.590;11.030;2023-05-21T11:59:18;8.50;;;5.88;;
20397;SDS011;10358;49.590;11.030;2023-05-21T12:01:43;8.70;;;6.10;;
20397;SDS011;10358;49.590;11.030;2023-05-21T12:04:09;7.95;;;6.43;;
20397;SDS011;10358;49.590;11.030;2023-05-21T12:06:36;9.15;;;6.22;;
20397;SDS011;10358;49.590;11.030;2023-05-21T12:09:02;7.45;;;5.72;;
20397;SDS011;10358;49.590;11.030;2023-05-21T12:11:28;8.20;;;5.47;;
20397;SDS011;10358;49.590;11.030;2023-05-21T12:13:55;7.82;;;5.68;;
20397;SDS011;10358;49.590;11.030;2023-05-21T12:16:21;9.38;;;5.60;;
20397;SDS011;10358;49.590;11.030;2023-05-21T12:18:47;8.93;;;4.95;;
20397;SDS011;10358;49.590;11.030;2023-05-21T12:21:12;8.90;;;5.30;;
20397;SDS011;10358;49.590;11.030;2023-05-21T12:23:39;11.50;;;5.45;;
20397;SDS011;10358;49.590;11.030;2023-05-21T12:26:04;9.90;;;5.40;;
20397;SDS011;10358;49.590;11.030;2023-05-21T12:28:30;11.48;;;5.65;;
20397;SDS011;10358;49.590;11.030;2023-05-21T12:30:56;7.57;;;5.50;;
20397;SDS011;10358;49.590;11.030;2023-05-21T12:33:21;9.95;;;6.35;;
20397;SDS011;10358;49.590;11.030;2023-05-21T12:35:49;7.80;;;5.90;;
20397;SDS011;10358;49.590;11.030;2023-05-21T12:38:16;8.98;;;5.75;;
20397;SDS011;10358;49.590;11.030;2023-05-21T12:40:41;8.48;;;6.22;;
20397;SDS011;10358;49.590;11.030;2023-05-21T12:43:09;11.15;;;6.40;;
20397;SDS011;10358;49.590;11.030;2023-05-21T12:45:34;10.18;;;6.10;;
20397;SDS011;10358;49.590;11.030;2023-05-21T12:48:03;9.50;;;6.07;;
20397;SDS011;10358;49.590;11.030;2023-05-21T12:50:28;8.57;;;6.05;;
20397;SDS011;10358;49.590;11.030;2023-05-21T12:52:54;8.13;;;6.30;;
20397;SDS011;10358;49.590;11.030;2023-05-21T12:55:22;7.80;;;5.40;;
20397;SDS011;10358;49.590;11.030;2023-05-21T12:57:58;8.23;;;5.18;;
20397;SDS011;10358;49.590;11.030;2023-05-21T13:00:27;8.63;;;5.30;;
20397;SDS011;10358;49.590;11.030;2023-05-21T13:02:54;7.43;;;5.25;;
20397;SDS011;10358;49.590;11.030;2023-05-21T13:05:20;9.07;;;5.28;;
20397;SDS011;10358;49.590;11.030;2023-05-21T13:07:46;9.15;;;4.85;;
20397;SDS011;10358;49.590;11.030;2023-05-21T13:10:12;8.50;;;5.35;;
20397;SDS011;10358;49.590;11.030;2023-05-21T13:12:38;6.90;;;5.10;;
20397;SDS011;10358;49.590;11.030;2023-05-21T13:15:04;7.10;;;5.00;;
20397;SDS011;10358;49.590;11.030;2023-05-21T13:17:31;9.32;;;5.18;;
20397;SDS011;10358;49.590;11.030;2023-05-21T13:20:13;6.00;;;4.95;;
20397;SDS011;10358;49.590;11.030;2023-05-21T13:22:40;8.85;;;4.90;;
20397;SDS011;10358;49.590;11.030;2023-05-21T13:25:07;8.02;;;5.32;;
20397;SDS011;10358;49.590;11.030;2023-05-21T13:27:35;8.23;;;4.80;;
20397;SDS011;10358;49.590;11.030;2023-05-21T13:30:00;7.90;;;4.97;;
20397;SDS011;10358;49.590;11.030;2023-05-21T13:32:26;6.78;;;4.80;;
20397;SDS011;10358;49.590;11.030;2023-05-21T13:34:52;10.10;;;5.18;;
20397;SDS011;10358;49.590;11.030;2023-05-21T13:37:17;8.57;;;5.07;;
20397;SDS011;10358;49.590;11.030;2023-05-21T13:39:44;6.55;;;4.90;;
20397;SDS011;10358;49.590;11.030;2023-05-21T13:42:10;5.90;;;4.65;;
20397;SDS011;10358;49.590;11.030;2023-05-21T13:44:36;6.93;;;4.40;;
20397;SDS011;10358;49.590;11.030;2023-05-21T13:47:02;8.23;;;4.60;;
20397;SDS011;10358;49.590;11.030;2023-05-21T13:49:29;7.65;;;4.60;;
20397;SDS011;10358;49.590;11.030;2023-05-21T13:51:54;5.22;;;4.50;;
20397;SDS011;10358;49.590;11.030;2023-05-21T13:54:22;6.00;;;5.10;;
20397;SDS011;10358;49.590;11.030;2023-05-21T13:56:48;9.35;;;4.82;;
20397;SDS011;10358;49.590;11.030;2023-05-21T13:59:13;8.38;;;4.82;;
20397;SDS011;10358;49.590;11.030;2023-05-21T14:01:39;6.55;;;4.65;;
20397;SDS011;10358;49.590;11.030;2023-05-21T14:04:04;7.38;;;4.93;;
20397;SDS011;10358;49.590;11.030;2023-05-21T14:06:31;7.63;;;4.50;;
20397;SDS011;10358;49.590;11.030;2023-05-21T14:08:57;5.40;;;3.85;;
20397;SDS011;10358;49.590;11.030;2023-05-21T14:11:23;6.85;;;4.57;;
20397;SDS011;10358;49.590;11.030;2023-05-21T14:13:49;6.95;;;4.20;;
20397;SDS011;10358;49.590;11.030;2023-05-21T14:16:15;6.13;;;4.43;;
20397;SDS011;10358;49.590;11.030;2023-05-21T14:18:40;7.63;;;4.65;;
20397;SDS011;10358;49.590;11.030;2023-05-21T14:21:06;9.77;;;4.85;;
20397;SDS011;10358;49.590;11.030;2023-05-21T14:23:31;8.43;;;4.68;;
20397;SDS011;10358;49.590;11.030;2023-05-21T14:25:57;5.47;;;4.65;;
20397;SDS011;10358;49.590;11.030;2023-05-21T14:28:23;11.15;;;4.82;;
20397;SDS011;10358;49.590;11.030;2023-05-21T14:30:49;8.60;;;4.82;;
20397;SDS011;10358;49.590;11.030;2023-05-21T14:33:14;5.82;;;4.28;;
20397;SDS011;10358;49.590;11.030;2023-05-21T14:35:40;8.45;;;4.45;;
20397;SDS011;10358;49.590;11.030;2023-05-21T14:38:08;8.32;;;4.32;;
20397;SDS011;10358;49.590;11.030;2023-05-21T14:40:33;6.93;;;4.45;;
20397;SDS011;10358;49.590;11.030;2023-05-21T14:42:59;6.55;;;4.28;;
20397;SDS011;10358;49.590;11.030;2023-05-21T14:45:25;6.32;;;4.43;;
20397;SDS011;10358;49.590;11.030;2023-05-21T14:47:50;5.15;;;4.07;;